Thunder radar more information blitzortung!


Rain radar  rain snow radar



Ingen spesiell oppmerksomhet nødvendig.    Det er ingen advarsler

Nearby METAR Reports

   
ENZV - Stavanger
Oppdatert: Sep 24 2020 12:50 pm
Lette byger, Regn, For det meste Overskyet  
Lette byger, Regn, For det meste Overskyet  
   Vind: SSØ 10.3 m/s
Vind: SSØ 10.3 m/s
Temperatur: 13°C
Duggpunkt: 10°C
Luftfuktighet: 82%
Barometer: 982 hPa
Skyer: Mostly Cloudy
Sikt: More than 10 km
Detaljer skyer: Noen skyer 1000 ft,
Delvis overskyet 2400 ft,
For det meste Overskyet 5000 ft
ENZV 241050Z 16020KT 9999 -SHRA FEW010CB SCT024 BKN050 13/10 Q0982 RESHRA TEMPO SHRA
ENCN - Kristiansand
Oppdatert: Sep 24 2020 12:50 pm
For det meste Overskyet  
For det meste Overskyet  
   Vind: Sør 14.9 m/s<br />Gust to 14.9 m/s
Vind: Sør 14.9 m/s
Gust to 14.9 m/s
Temperatur: 14°C
Duggpunkt: 9°C
Luftfuktighet: 72%
Barometer: 988 hPa
Skyer: Mostly Cloudy
Sikt: More than 10 km
Detaljer skyer: Noen skyer 1000 ft,
For det meste Overskyet 2500 ft
ENCN 241050Z 19029G45KT 9999 FEW010 BKN025 14/09 Q0988
ENBR - Bergen
Oppdatert: Sep 24 2020 12:50 pm
Lett Regn, For det meste Overskyet  
Lett Regn, For det meste Overskyet  
   Vind: Sør 4.6 m/s
Vind: Sør 4.6 m/s
Temperatur: 10°C
Wind Chill: 8°C
Duggpunkt: 10°C
Luftfuktighet: 100%
Barometer: 981 hPa
Skyer: Mostly Cloudy
Sikt: 7 km
Detaljer skyer: Noen skyer 100 ft,
For det meste Overskyet 400 ft
ENBR 241050Z 18009KT 7000 -RA FEW001 BKN004 10/10 Q0981 TEMPO 4000 RA SCT004 BKN007 RMK WIND 1200FT 16015KT
ENGM - Oslo
Oppdatert: Sep 24 2020 12:50 pm
Lette byger, Regn, For det meste Overskyet  
Lette byger, Regn, For det meste Overskyet  
   Vind: SSØ 9.8 m/s
Vind: SSØ 9.8 m/s
Temperatur: 13°C
Duggpunkt: 12°C
Luftfuktighet: 94%
Barometer: 989 hPa
Skyer: Mostly Cloudy
Sikt: 9 km
Detaljer skyer: For det meste Overskyet 900 ft
ENGM 241050Z 16019KT 9000 -SHRA BKN009 13/12 Q0989 TEMPO 16020G30KT BKN012
ENVA - Trondheim
Oppdatert: Sep 24 2020 12:50 pm
For det meste Overskyet  
For det meste Overskyet  
   Vind: ØNØ 8.2 m/s
Vind: ØNØ 8.2 m/s
Temperatur: 10°C
Wind Chill: 7°C
Duggpunkt: 5°C
Luftfuktighet: 71%
Barometer: 990 hPa
Skyer: Mostly Cloudy
Sikt: More than 10 km
Detaljer skyer: Delvis overskyet 3700 ft,
For det meste Overskyet 7000 ft
ENVA 241050Z 07016KT 9999 SCT037 BKN070 10/05 Q0990 NOSIG RMK WIND 670FT 08017KT
ENTC - Tromsø
Oppdatert: Sep 24 2020 12:50 pm
Lokale byger, Delvis overskyet  
Lokale byger, Delvis overskyet  
   Vind: SV 8.2 m/s
Vind: SV 8.2 m/s
Temperatur: 7°C
Wind Chill: 3°C
Duggpunkt: 2°C
Luftfuktighet: 71%
Barometer: 1005 hPa
Skyer: Partly Cloudy
Sikt: More than 10 km
Detaljer skyer: Noen skyer 3000 ft,
Delvis overskyet 4500 ft
ENTC 241050Z 22016KT 9999 VCSH FEW030 SCT045 07/02 Q1005 NOSIG RMK WIND 2600FT 23015KT

Script utviklet av  Saratoga-weather.org Tilpasset for tamplaten av  Weerstation Leuven

Du finner vår vær info også på:

European Weather Network

WeatherCloud

Weather Underground

AWEKAS

HAMweather, WeatherForYou, PWS Weather

Utrustning vi bruker:

vær-station
Davis VP2

vær-programmet
Weather Display

Davis VP2

Weather Display